sensor_id;sensor_type;location;lat;lon;timestamp;temperature;humidity
57753;DHT22;43583;53.132;6.574;2024-01-10T00:01:35;-3.90;99.90
57753;DHT22;43583;53.132;6.574;2024-01-10T00:04:01;-3.90;99.90
57753;DHT22;43583;53.132;6.574;2024-01-10T00:06:26;-3.90;99.90
57753;DHT22;43583;53.132;6.574;2024-01-10T00:08:52;-3.90;99.90
57753;DHT22;43583;53.132;6.574;2024-01-10T00:11:18;-3.90;99.90
57753;DHT22;43583;53.132;6.574;2024-01-10T00:13:44;-3.90;99.90
57753;DHT22;43583;53.132;6.574;2024-01-10T00:16:11;-3.90;99.90
57753;DHT22;43583;53.132;6.574;2024-01-10T00:18:38;-3.90;99.90
57753;DHT22;43583;53.132;6.574;2024-01-10T00:21:06;-3.90;99.90
57753;DHT22;43583;53.132;6.574;2024-01-10T00:23:31;-4.00;99.90
57753;DHT22;43583;53.132;6.574;2024-01-10T00:25:57;-4.00;99.90
57753;DHT22;43583;53.132;6.574;2024-01-10T00:28:23;-3.90;99.90
57753;DHT22;43583;53.132;6.574;2024-01-10T00:30:50;-4.00;99.90
57753;DHT22;43583;53.132;6.574;2024-01-10T00:33:16;-4.00;99.90
57753;DHT22;43583;53.132;6.574;2024-01-10T00:35:41;-4.00;99.90
57753;DHT22;43583;53.132;6.574;2024-01-10T00:38:08;-4.10;99.90
57753;DHT22;43583;53.132;6.574;2024-01-10T00:40:33;-4.00;99.90
57753;DHT22;43583;53.132;6.574;2024-01-10T00:42:59;-4.00;99.90
57753;DHT22;43583;53.132;6.574;2024-01-10T00:45:24;-4.00;99.90
57753;DHT22;43583;53.132;6.574;2024-01-10T00:47:50;-4.00;99.90
57753;DHT22;43583;53.132;6.574;2024-01-10T00:50:17;-4.10;99.90
57753;DHT22;43583;53.132;6.574;2024-01-10T00:52:44;-4.10;99.90
57753;DHT22;43583;53.132;6.574;2024-01-10T00:55:10;-4.10;99.90
57753;DHT22;43583;53.132;6.574;2024-01-10T00:57:36;-4.10;99.90
57753;DHT22;43583;53.132;6.574;2024-01-10T01:00:04;-4.10;99.90
57753;DHT22;43583;53.132;6.574;2024-01-10T01:02:30;-4.10;99.90
57753;DHT22;43583;53.132;6.574;2024-01-10T01:04:56;-4.10;99.90
57753;DHT22;43583;53.132;6.574;2024-01-10T01:07:21;-4.10;99.90
57753;DHT22;43583;53.132;6.574;2024-01-10T01:09:47;-4.10;99.90
57753;DHT22;43583;53.132;6.574;2024-01-10T01:12:14;-4.10;99.90
57753;DHT22;43583;53.132;6.574;2024-01-10T01:14:40;-4.10;99.90
57753;DHT22;43583;53.132;6.574;2024-01-10T01:17:06;-4.10;99.90
57753;DHT22;43583;53.132;6.574;2024-01-10T01:19:31;-4.10;99.90
57753;DHT22;43583;53.132;6.574;2024-01-10T01:21:57;-4.10;99.90
57753;DHT22;43583;53.132;6.574;2024-01-10T01:24:23;-4.20;99.90
57753;DHT22;43583;53.132;6.574;2024-01-10T01:26:48;-4.10;99.90
57753;DHT22;43583;53.132;6.574;2024-01-10T01:29:14;-4.20;99.90
57753;DHT22;43583;53.132;6.574;2024-01-10T01:31:40;-4.10;99.90
57753;DHT22;43583;53.132;6.574;2024-01-10T01:34:05;-4.20;99.90
57753;DHT22;43583;53.132;6.574;2024-01-10T01:36:31;-4.20;99.90
57753;DHT22;43583;53.132;6.574;2024-01-10T01:38:57;-4.20;99.90
57753;DHT22;43583;53.132;6.574;2024-01-10T01:41:22;-4.20;99.90
57753;DHT22;43583;53.132;6.574;2024-01-10T01:43:48;-4.20;99.90
57753;DHT22;43583;53.132;6.574;2024-01-10T01:46:14;-4.20;99.90
57753;DHT22;43583;53.132;6.574;2024-01-10T01:48:40;-4.10;99.90
57753;DHT22;43583;53.132;6.574;2024-01-10T01:51:09;-4.10;99.90
57753;DHT22;43583;53.132;6.574;2024-01-10T01:53:36;-4.00;99.90
57753;DHT22;43583;53.132;6.574;2024-01-10T01:56:06;-4.00;99.90
57753;DHT22;43583;53.132;6.574;2024-01-10T01:58:32;-4.00;99.90
57753;DHT22;43583;53.132;6.574;2024-01-10T02:00:58;-3.90;99.90
57753;DHT22;43583;53.132;6.574;2024-01-10T02:03:24;-3.90;99.90
57753;DHT22;43583;53.132;6.574;2024-01-10T02:05:52;-3.90;99.90
57753;DHT22;43583;53.132;6.574;2024-01-10T02:08:17;-3.90;99.90
57753;DHT22;43583;53.132;6.574;2024-01-10T02:10:43;-3.90;99.90
57753;DHT22;43583;53.132;6.574;2024-01-10T02:13:09;-3.90;99.90
57753;DHT22;43583;53.132;6.574;2024-01-10T02:15:37;-3.90;99.90
57753;DHT22;43583;53.132;6.574;2024-01-10T02:18:03;-3.90;99.90
57753;DHT22;43583;53.132;6.574;2024-01-10T02:20:31;-3.90;99.90
57753;DHT22;43583;53.132;6.574;2024-01-10T02:22:57;-3.80;99.90
57753;DHT22;43583;53.132;6.574;2024-01-10T02:25:22;-3.80;99.90
57753;DHT22;43583;53.132;6.574;2024-01-10T02:27:48;-3.80;99.90
57753;DHT22;43583;53.132;6.574;2024-01-10T02:30:14;-3.70;99.90
57753;DHT22;43583;53.132;6.574;2024-01-10T02:32:40;-3.70;99.90
57753;DHT22;43583;53.132;6.574;2024-01-10T02:35:06;-3.70;99.90
57753;DHT22;43583;53.132;6.574;2024-01-10T02:37:32;-3.70;99.90
57753;DHT22;43583;53.132;6.574;2024-01-10T02:39:58;-3.70;99.90
57753;DHT22;43583;53.132;6.574;2024-01-10T02:42:24;-3.70;99.90
57753;DHT22;43583;53.132;6.574;2024-01-10T02:44:49;-3.70;99.90
57753;DHT22;43583;53.132;6.574;2024-01-10T02:47:15;-3.70;99.90
57753;DHT22;43583;53.132;6.574;2024-01-10T02:49:41;-3.70;99.90
57753;DHT22;43583;53.132;6.574;2024-01-10T02:52:07;-3.60;99.90
57753;DHT22;43583;53.132;6.574;2024-01-10T02:54:32;-3.70;99.90
57753;DHT22;43583;53.132;6.574;2024-01-10T02:56:58;-3.60;99.90
57753;DHT22;43583;53.132;6.574;2024-01-10T02:59:23;-3.60;99.90
57753;DHT22;43583;53.132;6.574;2024-01-10T03:01:49;-3.60;99.90
57753;DHT22;43583;53.132;6.574;2024-01-10T03:04:15;-3.60;99.90
57753;DHT22;43583;53.132;6.574;2024-01-10T03:06:40;-3.60;99.90
57753;DHT22;43583;53.132;6.574;2024-01-10T03:09:06;-3.60;99.90
57753;DHT22;43583;53.132;6.574;2024-01-10T03:11:33;-3.60;99.90
57753;DHT22;43583;53.132;6.574;2024-01-10T03:14:02;-3.60;99.90
57753;DHT22;43583;53.132;6.574;2024-01-10T03:16:30;-3.60;99.90
57753;DHT22;43583;53.132;6.574;2024-01-10T03:18:55;-3.60;99.90
57753;DHT22;43583;53.132;6.574;2024-01-10T03:21:21;-3.60;99.90
57753;DHT22;43583;53.132;6.574;2024-01-10T03:23:56;-3.60;99.90
57753;DHT22;43583;53.132;6.574;2024-01-10T03:26:22;-3.60;99.90
57753;DHT22;43583;53.132;6.574;2024-01-10T03:28:48;-3.70;99.90
57753;DHT22;43583;53.132;6.574;2024-01-10T03:31:14;-3.70;99.90
57753;DHT22;43583;53.132;6.574;2024-01-10T03:33:40;-3.70;99.90
57753;DHT22;43583;53.132;6.574;2024-01-10T03:36:08;-3.70;99.90
57753;DHT22;43583;53.132;6.574;2024-01-10T03:38:34;-3.80;99.90
57753;DHT22;43583;53.132;6.574;2024-01-10T03:41:00;-3.80;99.90
57753;DHT22;43583;53.132;6.574;2024-01-10T03:43:25;-3.80;99.90
57753;DHT22;43583;53.132;6.574;2024-01-10T03:45:51;-3.80;99.90
57753;DHT22;43583;53.132;6.574;2024-01-10T03:48:17;-3.70;99.90
57753;DHT22;43583;53.132;6.574;2024-01-10T03:50:42;-3.80;99.90
57753;DHT22;43583;53.132;6.574;2024-01-10T03:53:08;-3.70;99.90
57753;DHT22;43583;53.132;6.574;2024-01-10T03:55:34;-3.70;99.90
57753;DHT22;43583;53.132;6.574;2024-01-10T03:57:59;-3.70;99.90
57753;DHT22;43583;53.132;6.574;2024-01-10T04:00:25;-3.70;99.90
57753;DHT22;43583;53.132;6.574;2024-01-10T04:02:51;-3.70;99.90
57753;DHT22;43583;53.132;6.574;2024-01-10T04:05:18;-3.70;99.90
57753;DHT22;43583;53.132;6.574;2024-01-10T04:07:46;-3.70;99.90
57753;DHT22;43583;53.132;6.574;2024-01-10T04:10:12;-3.70;99.90
57753;DHT22;43583;53.132;6.574;2024-01-10T04:12:45;-3.70;99.90
57753;DHT22;43583;53.132;6.574;2024-01-10T04:15:12;-3.70;99.90
57753;DHT22;43583;53.132;6.574;2024-01-10T04:17:38;-3.70;99.90
57753;DHT22;43583;53.132;6.574;2024-01-10T04:20:04;-3.70;99.90
57753;DHT22;43583;53.132;6.574;2024-01-10T04:22:30;-3.80;99.90
57753;DHT22;43583;53.132;6.574;2024-01-10T04:24:58;-3.80;99.90
57753;DHT22;43583;53.132;6.574;2024-01-10T04:27:23;-3.80;99.90
57753;DHT22;43583;53.132;6.574;2024-01-10T04:29:49;-3.80;99.90
57753;DHT22;43583;53.132;6.574;2024-01-10T04:32:15;-3.80;99.90
57753;DHT22;43583;53.132;6.574;2024-01-10T04:34:41;-3.90;99.90
57753;DHT22;43583;53.132;6.574;2024-01-10T04:37:06;-3.90;99.90
57753;DHT22;43583;53.132;6.574;2024-01-10T04:39:36;-3.90;99.90
57753;DHT22;43583;53.132;6.574;2024-01-10T04:42:03;-4.00;99.90
57753;DHT22;43583;53.132;6.574;2024-01-10T04:44:29;-4.00;99.90
57753;DHT22;43583;53.132;6.574;2024-01-10T04:46:55;-4.00;99.90
57753;DHT22;43583;53.132;6.574;2024-01-10T04:49:21;-4.00;99.90
57753;DHT22;43583;53.132;6.574;2024-01-10T04:51:47;-4.00;99.90
57753;DHT22;43583;53.132;6.574;2024-01-10T04:54:13;-4.00;99.90
57753;DHT22;43583;53.132;6.574;2024-01-10T04:56:38;-4.10;99.90
57753;DHT22;43583;53.132;6.574;2024-01-10T04:59:04;-4.10;99.90
57753;DHT22;43583;53.132;6.574;2024-01-10T05:01:31;-4.10;99.90
57753;DHT22;43583;53.132;6.574;2024-01-10T05:03:57;-4.10;99.90
57753;DHT22;43583;53.132;6.574;2024-01-10T05:06:23;-4.10;99.90
57753;DHT22;43583;53.132;6.574;2024-01-10T05:08:49;-4.00;99.90
57753;DHT22;43583;53.132;6.574;2024-01-10T05:11:15;-4.00;99.90
57753;DHT22;43583;53.132;6.574;2024-01-10T05:13:43;-4.00;99.90
57753;DHT22;43583;53.132;6.574;2024-01-10T05:16:08;-4.00;99.90
57753;DHT22;43583;53.132;6.574;2024-01-10T05:18:34;-4.10;99.90
57753;DHT22;43583;53.132;6.574;2024-01-10T05:21:00;-4.10;99.90
57753;DHT22;43583;53.132;6.574;2024-01-10T05:23:26;-4.10;99.90
57753;DHT22;43583;53.132;6.574;2024-01-10T05:25:53;-4.10;99.90
57753;DHT22;43583;53.132;6.574;2024-01-10T05:28:19;-4.20;99.90
57753;DHT22;43583;53.132;6.574;2024-01-10T05:30:45;-4.20;99.90
57753;DHT22;43583;53.132;6.574;2024-01-10T05:33:10;-4.20;99.90
57753;DHT22;43583;53.132;6.574;2024-01-10T05:35:39;-4.20;99.90
57753;DHT22;43583;53.132;6.574;2024-01-10T05:38:05;-4.20;99.90
57753;DHT22;43583;53.132;6.574;2024-01-10T05:40:31;-4.30;99.90
57753;DHT22;43583;53.132;6.574;2024-01-10T05:42:58;-4.30;99.90
57753;DHT22;43583;53.132;6.574;2024-01-10T05:45:25;-4.30;99.90
57753;DHT22;43583;53.132;6.574;2024-01-10T05:47:51;-4.30;99.90
57753;DHT22;43583;53.132;6.574;2024-01-10T05:50:17;-4.30;99.90
57753;DHT22;43583;53.132;6.574;2024-01-10T05:52:43;-4.30;99.90
57753;DHT22;43583;53.132;6.574;2024-01-10T05:55:09;-4.20;99.90
57753;DHT22;43583;53.132;6.574;2024-01-10T05:57:39;-4.20;99.90
57753;DHT22;43583;53.132;6.574;2024-01-10T06:00:05;-4.20;99.90
57753;DHT22;43583;53.132;6.574;2024-01-10T06:02:41;-4.20;99.90
57753;DHT22;43583;53.132;6.574;2024-01-10T06:05:08;-4.30;99.90
57753;DHT22;43583;53.132;6.574;2024-01-10T06:07:35;-4.30;99.90
57753;DHT22;43583;53.132;6.574;2024-01-10T06:10:00;-4.30;99.90
57753;DHT22;43583;53.132;6.574;2024-01-10T06:12:27;-4.30;99.90
57753;DHT22;43583;53.132;6.574;2024-01-10T06:14:53;-4.30;99.90
57753;DHT22;43583;53.132;6.574;2024-01-10T06:17:19;-4.30;99.90
57753;DHT22;43583;53.132;6.574;2024-01-10T06:19:45;-4.30;99.90
57753;DHT22;43583;53.132;6.574;2024-01-10T06:22:10;-4.30;99.90
57753;DHT22;43583;53.132;6.574;2024-01-10T06:24:39;-4.20;99.90
57753;DHT22;43583;53.132;6.574;2024-01-10T06:27:06;-4.20;99.90
57753;DHT22;43583;53.132;6.574;2024-01-10T06:29:32;-4.20;99.90
57753;DHT22;43583;53.132;6.574;2024-01-10T06:31:59;-4.20;99.90
57753;DHT22;43583;53.132;6.574;2024-01-10T06:34:27;-4.20;99.90
57753;DHT22;43583;53.132;6.574;2024-01-10T06:36:53;-4.20;99.90
57753;DHT22;43583;53.132;6.574;2024-01-10T06:39:18;-4.20;99.90
57753;DHT22;43583;53.132;6.574;2024-01-10T06:41:47;-4.20;99.90
57753;DHT22;43583;53.132;6.574;2024-01-10T06:44:13;-4.20;99.90
57753;DHT22;43583;53.132;6.574;2024-01-10T06:46:38;-4.10;99.90
57753;DHT22;43583;53.132;6.574;2024-01-10T06:49:04;-4.20;99.90
57753;DHT22;43583;53.132;6.574;2024-01-10T06:51:29;-4.20;99.90
57753;DHT22;43583;53.132;6.574;2024-01-10T06:53:55;-4.20;99.90
57753;DHT22;43583;53.132;6.574;2024-01-10T06:56:28;-4.20;99.90
57753;DHT22;43583;53.132;6.574;2024-01-10T06:58:54;-4.20;99.90
57753;DHT22;43583;53.132;6.574;2024-01-10T07:01:20;-4.20;99.90
57753;DHT22;43583;53.132;6.574;2024-01-10T07:03:47;-4.20;99.90
57753;DHT22;43583;53.132;6.574;2024-01-10T07:06:13;-4.20;99.90
57753;DHT22;43583;53.132;6.574;2024-01-10T07:08:41;-4.20;99.90
57753;DHT22;43583;53.132;6.574;2024-01-10T07:11:08;-4.20;99.90
57753;DHT22;43583;53.132;6.574;2024-01-10T07:13:34;-4.20;99.90
57753;DHT22;43583;53.132;6.574;2024-01-10T07:16:00;-4.20;99.90
57753;DHT22;43583;53.132;6.574;2024-01-10T07:18:28;-4.20;99.90
57753;DHT22;43583;53.132;6.574;2024-01-10T07:20:54;-4.20;99.90
57753;DHT22;43583;53.132;6.574;2024-01-10T07:23:19;-4.20;99.90
57753;DHT22;43583;53.132;6.574;2024-01-10T07:25:45;-4.20;99.90
57753;DHT22;43583;53.132;6.574;2024-01-10T07:28:11;-4.20;99.90
57753;DHT22;43583;53.132;6.574;2024-01-10T07:30:37;-4.20;99.90
57753;DHT22;43583;53.132;6.574;2024-01-10T07:33:02;-4.20;99.90
57753;DHT22;43583;53.132;6.574;2024-01-10T07:35:28;-4.20;99.90
57753;DHT22;43583;53.132;6.574;2024-01-10T07:37:55;-4.20;99.90
57753;DHT22;43583;53.132;6.574;2024-01-10T07:40:21;-4.20;99.90
57753;DHT22;43583;53.132;6.574;2024-01-10T07:42:48;-4.20;99.90
57753;DHT22;43583;53.132;6.574;2024-01-10T07:45:13;-4.20;99.90
57753;DHT22;43583;53.132;6.574;2024-01-10T07:47:39;-4.20;99.90
57753;DHT22;43583;53.132;6.574;2024-01-10T07:50:05;-4.30;99.90
57753;DHT22;43583;53.132;6.574;2024-01-10T07:52:32;-4.20;99.90
57753;DHT22;43583;53.132;6.574;2024-01-10T07:55:08;-4.20;99.90
57753;DHT22;43583;53.132;6.574;2024-01-10T07:57:38;-4.20;99.90
57753;DHT22;43583;53.132;6.574;2024-01-10T08:00:07;-4.30;99.90
57753;DHT22;43583;53.132;6.574;2024-01-10T08:02:43;-4.30;99.90
57753;DHT22;43583;53.132;6.574;2024-01-10T08:05:09;-4.30;99.90
57753;DHT22;43583;53.132;6.574;2024-01-10T08:07:36;-4.30;99.90
57753;DHT22;43583;53.132;6.574;2024-01-10T08:10:08;-4.30;99.90
57753;DHT22;43583;53.132;6.574;2024-01-10T08:12:39;-4.20;99.90
57753;DHT22;43583;53.132;6.574;2024-01-10T08:15:15;-4.20;99.90
57753;DHT22;43583;53.132;6.574;2024-01-10T08:17:41;-4.10;99.90
57753;DHT22;43583;53.132;6.574;2024-01-10T08:20:07;-4.10;99.90
57753;DHT22;43583;53.132;6.574;2024-01-10T08:22:42;-4.10;99.90
57753;DHT22;43583;53.132;6.574;2024-01-10T08:25:09;-4.00;99.90
57753;DHT22;43583;53.132;6.574;2024-01-10T08:27:35;-4.00;99.90
57753;DHT22;43583;53.132;6.574;2024-01-10T08:30:00;-4.00;99.90
57753;DHT22;43583;53.132;6.574;2024-01-10T08:32:33;-3.90;99.90
57753;DHT22;43583;53.132;6.574;2024-01-10T08:35:00;-3.90;99.90
57753;DHT22;43583;53.132;6.574;2024-01-10T08:37:44;-3.90;99.90
57753;DHT22;43583;53.132;6.574;2024-01-10T08:40:18;-3.90;99.90
57753;DHT22;43583;53.132;6.574;2024-01-10T08:42:46;-3.90;99.90
57753;DHT22;43583;53.132;6.574;2024-01-10T08:45:12;-3.80;99.90
57753;DHT22;43583;53.132;6.574;2024-01-10T08:47:45;-3.80;99.90
57753;DHT22;43583;53.132;6.574;2024-01-10T08:50:11;-3.80;99.90
57753;DHT22;43583;53.132;6.574;2024-01-10T08:52:37;-3.70;99.90
57753;DHT22;43583;53.132;6.574;2024-01-10T08:55:20;-3.60;99.90
57753;DHT22;43583;53.132;6.574;2024-01-10T08:57:48;-3.60;99.90
57753;DHT22;43583;53.132;6.574;2024-01-10T09:00:23;-3.60;99.90
57753;DHT22;43583;53.132;6.574;2024-01-10T09:02:52;-3.50;99.90
57753;DHT22;43583;53.132;6.574;2024-01-10T09:05:25;-3.50;99.90
57753;DHT22;43583;53.132;6.574;2024-01-10T09:07:50;-3.50;99.90
57753;DHT22;43583;53.132;6.574;2024-01-10T09:10:25;-3.50;99.90
57753;DHT22;43583;53.132;6.574;2024-01-10T09:12:54;-3.40;99.90
57753;DHT22;43583;53.132;6.574;2024-01-10T09:15:20;-3.40;99.90
57753;DHT22;43583;53.132;6.574;2024-01-10T09:18:01;-3.40;99.90
57753;DHT22;43583;53.132;6.574;2024-01-10T09:20:45;-3.30;99.90
57753;DHT22;43583;53.132;6.574;2024-01-10T09:23:20;-3.20;99.90
57753;DHT22;43583;53.132;6.574;2024-01-10T09:25:45;-3.10;99.90
57753;DHT22;43583;53.132;6.574;2024-01-10T09:28:11;-2.60;99.90
57753;DHT22;43583;53.132;6.574;2024-01-10T09:30:37;-2.00;99.90
57753;DHT22;43583;53.132;6.574;2024-01-10T09:33:02;-1.20;99.90
57753;DHT22;43583;53.132;6.574;2024-01-10T09:35:28;-0.50;99.90
57753;DHT22;43583;53.132;6.574;2024-01-10T09:37:55;-0.10;99.90
57753;DHT22;43583;53.132;6.574;2024-01-10T09:40:21;0.20;99.90
57753;DHT22;43583;53.132;6.574;2024-01-10T09:42:50;0.40;99.90
57753;DHT22;43583;53.132;6.574;2024-01-10T09:45:22;0.70;99.90
57753;DHT22;43583;53.132;6.574;2024-01-10T09:47:52;0.80;99.90
57753;DHT22;43583;53.132;6.574;2024-01-10T09:50:37;1.00;99.90
57753;DHT22;43583;53.132;6.574;2024-01-10T09:56:08;0.80;99.90
57753;DHT22;43583;53.132;6.574;2024-01-10T09:58:38;0.40;99.90
57753;DHT22;43583;53.132;6.574;2024-01-10T10:01:05;0.20;99.90
57753;DHT22;43583;53.132;6.574;2024-01-10T10:03:41;-0.10;99.90
57753;DHT22;43583;53.132;6.574;2024-01-10T10:06:10;-0.60;99.90
57753;DHT22;43583;53.132;6.574;2024-01-10T10:08:54;-1.10;99.90
57753;DHT22;43583;53.132;6.574;2024-01-10T10:11:56;-1.40;99.90
57753;DHT22;43583;53.132;6.574;2024-01-10T10:14:31;-1.70;99.90
57753;DHT22;43583;53.132;6.574;2024-01-10T10:16:56;-1.90;99.90
57753;DHT22;43583;53.132;6.574;2024-01-10T10:19:38;-1.90;99.90
57753;DHT22;43583;53.132;6.574;2024-01-10T10:22:18;-2.00;99.90
57753;DHT22;43583;53.132;6.574;2024-01-10T10:24:48;-2.00;99.90
57753;DHT22;43583;53.132;6.574;2024-01-10T10:27:27;-2.00;99.90
57753;DHT22;43583;53.132;6.574;2024-01-10T10:29:52;-2.00;99.90
57753;DHT22;43583;53.132;6.574;2024-01-10T10:32:18;-2.00;99.90
57753;DHT22;43583;53.132;6.574;2024-01-10T10:34:44;-2.00;99.90
57753;DHT22;43583;53.132;6.574;2024-01-10T10:37:09;-1.90;99.90
57753;DHT22;43583;53.132;6.574;2024-01-10T10:39:35;-1.90;99.90
57753;DHT22;43583;53.132;6.574;2024-01-10T10:42:00;-1.80;99.90
57753;DHT22;43583;53.132;6.574;2024-01-10T10:44:29;-1.80;99.90
57753;DHT22;43583;53.132;6.574;2024-01-10T10:47:00;-1.70;99.90
57753;DHT22;43583;53.132;6.574;2024-01-10T10:49:29;-1.60;99.90
57753;DHT22;43583;53.132;6.574;2024-01-10T10:51:59;-1.60;99.90
57753;DHT22;43583;53.132;6.574;2024-01-10T10:54:28;-1.60;99.90
57753;DHT22;43583;53.132;6.574;2024-01-10T10:56:57;-1.60;99.90
57753;DHT22;43583;53.132;6.574;2024-01-10T10:59:25;-1.50;99.90
57753;DHT22;43583;53.132;6.574;2024-01-10T11:01:52;-1.50;99.90
57753;DHT22;43583;53.132;6.574;2024-01-10T11:04:20;-1.50;99.90
57753;DHT22;43583;53.132;6.574;2024-01-10T11:06:46;-1.40;99.90
57753;DHT22;43583;53.132;6.574;2024-01-10T11:09:15;-1.40;99.90
57753;DHT22;43583;53.132;6.574;2024-01-10T11:11:48;-1.30;99.90
57753;DHT22;43583;53.132;6.574;2024-01-10T11:17:37;-1.30;99.90
57753;DHT22;43583;53.132;6.574;2024-01-10T11:25:43;-1.10;99.90
57753;DHT22;43583;53.132;6.574;2024-01-10T11:28:12;-1.10;99.90
57753;DHT22;43583;53.132;6.574;2024-01-10T11:30:55;-1.10;99.90
57753;DHT22;43583;53.132;6.574;2024-01-10T11:33:32;-1.10;99.90
57753;DHT22;43583;53.132;6.574;2024-01-10T11:36:19;-1.10;99.90
57753;DHT22;43583;53.132;6.574;2024-01-10T11:38:58;-1.10;99.90
57753;DHT22;43583;53.132;6.574;2024-01-10T11:41:49;-1.10;99.90
57753;DHT22;43583;53.132;6.574;2024-01-10T11:44:28;-1.10;99.90
57753;DHT22;43583;53.132;6.574;2024-01-10T11:46:58;-1.00;99.90
57753;DHT22;43583;53.132;6.574;2024-01-10T11:49:33;-1.00;99.90
57753;DHT22;43583;53.132;6.574;2024-01-10T11:52:02;-1.00;99.90
57753;DHT22;43583;53.132;6.574;2024-01-10T11:54:45;-1.00;99.90
57753;DHT22;43583;53.132;6.574;2024-01-10T11:57:22;-0.90;99.90
57753;DHT22;43583;53.132;6.574;2024-01-10T11:59:58;-0.90;99.90
57753;DHT22;43583;53.132;6.574;2024-01-10T12:02:29;-0.80;99.90
57753;DHT22;43583;53.132;6.574;2024-01-10T12:05:03;-0.80;99.90
57753;DHT22;43583;53.132;6.574;2024-01-10T12:07:29;-0.80;99.90
57753;DHT22;43583;53.132;6.574;2024-01-10T12:10:04;-0.80;99.90
57753;DHT22;43583;53.132;6.574;2024-01-10T12:12:30;-0.80;99.90
57753;DHT22;43583;53.132;6.574;2024-01-10T12:14:56;-0.70;99.90
57753;DHT22;43583;53.132;6.574;2024-01-10T12:20:38;-0.70;99.90
57753;DHT22;43583;53.132;6.574;2024-01-10T12:23:04;-0.70;99.90
57753;DHT22;43583;53.132;6.574;2024-01-10T12:25:29;-0.70;99.90
57753;DHT22;43583;53.132;6.574;2024-01-10T12:28:06;-0.70;99.90
57753;DHT22;43583;53.132;6.574;2024-01-10T12:30:32;-0.70;99.90
57753;DHT22;43583;53.132;6.574;2024-01-10T12:33:08;-0.60;99.90
57753;DHT22;43583;53.132;6.574;2024-01-10T12:35:34;-0.60;99.90
57753;DHT22;43583;53.132;6.574;2024-01-10T12:38:00;-0.60;99.90
57753;DHT22;43583;53.132;6.574;2024-01-10T12:40:35;-0.60;99.90
57753;DHT22;43583;53.132;6.574;2024-01-10T12:43:04;-0.60;99.90
57753;DHT22;43583;53.132;6.574;2024-01-10T12:45:40;-0.60;99.90
57753;DHT22;43583;53.132;6.574;2024-01-10T12:48:31;-0.60;99.90
57753;DHT22;43583;53.132;6.574;2024-01-10T12:51:10;-0.60;99.90
57753;DHT22;43583;53.132;6.574;2024-01-10T12:53:37;-0.60;99.90
57753;DHT22;43583;53.132;6.574;2024-01-10T12:56:07;-0.60;99.90
57753;DHT22;43583;53.132;6.574;2024-01-10T12:58:34;-0.50;99.90
57753;DHT22;43583;53.132;6.574;2024-01-10T13:01:10;-0.50;99.90
57753;DHT22;43583;53.132;6.574;2024-01-10T13:03:37;-0.50;99.90
57753;DHT22;43583;53.132;6.574;2024-01-10T13:06:06;-0.50;99.90
57753;DHT22;43583;53.132;6.574;2024-01-10T13:08:41;-0.50;99.90
57753;DHT22;43583;53.132;6.574;2024-01-10T13:11:07;-0.40;99.90
57753;DHT22;43583;53.132;6.574;2024-01-10T13:13:43;-0.50;99.90
57753;DHT22;43583;53.132;6.574;2024-01-10T13:16:09;-0.50;99.90
57753;DHT22;43583;53.132;6.574;2024-01-10T13:18:47;-0.50;99.90
57753;DHT22;43583;53.132;6.574;2024-01-10T13:21:12;-0.50;99.90
57753;DHT22;43583;53.132;6.574;2024-01-10T13:23:38;-0.50;99.90
57753;DHT22;43583;53.132;6.574;2024-01-10T13:26:14;-0.50;99.90
57753;DHT22;43583;53.132;6.574;2024-01-10T13:28:40;-0.40;99.90
57753;DHT22;43583;53.132;6.574;2024-01-10T13:31:06;-0.40;99.90
57753;DHT22;43583;53.132;6.574;2024-01-10T13:33:43;-0.50;99.90
57753;DHT22;43583;53.132;6.574;2024-01-10T13:36:08;-0.40;99.90
57753;DHT22;43583;53.132;6.574;2024-01-10T13:38:34;-0.40;99.90
57753;DHT22;43583;53.132;6.574;2024-01-10T13:41:00;-0.40;99.90
57753;DHT22;43583;53.132;6.574;2024-01-10T13:43:29;-0.50;99.90
57753;DHT22;43583;53.132;6.574;2024-01-10T13:45:55;-0.40;99.90
57753;DHT22;43583;53.132;6.574;2024-01-10T13:48:21;-0.50;99.90
57753;DHT22;43583;53.132;6.574;2024-01-10T13:53:43;-0.50;99.90
57753;DHT22;43583;53.132;6.574;2024-01-10T13:56:09;-0.50;99.90
57753;DHT22;43583;53.132;6.574;2024-01-10T13:58:46;-0.50;99.90
57753;DHT22;43583;53.132;6.574;2024-01-10T14:01:11;-0.50;99.90
57753;DHT22;43583;53.132;6.574;2024-01-10T14:03:37;-0.50;99.90
57753;DHT22;43583;53.132;6.574;2024-01-10T14:06:03;-0.50;99.90
57753;DHT22;43583;53.132;6.574;2024-01-10T14:08:29;-0.60;99.90
57753;DHT22;43583;53.132;6.574;2024-01-10T14:10:54;-0.60;99.90
57753;DHT22;43583;53.132;6.574;2024-01-10T14:13:20;-0.60;99.90
57753;DHT22;43583;53.132;6.574;2024-01-10T14:15:46;-0.60;99.90
57753;DHT22;43583;53.132;6.574;2024-01-10T14:18:11;-0.60;99.90
57753;DHT22;43583;53.132;6.574;2024-01-10T14:20:37;-0.60;99.90
57753;DHT22;43583;53.132;6.574;2024-01-10T14:23:03;-0.60;99.90
57753;DHT22;43583;53.132;6.574;2024-01-10T14:25:28;-0.60;99.90
57753;DHT22;43583;53.132;6.574;2024-01-10T14:27:54;-0.70;99.90
57753;DHT22;43583;53.132;6.574;2024-01-10T14:30:28;-0.70;99.90
57753;DHT22;43583;53.132;6.574;2024-01-10T14:32:54;-0.70;99.90
57753;DHT22;43583;53.132;6.574;2024-01-10T14:35:25;-0.80;99.90
57753;DHT22;43583;53.132;6.574;2024-01-10T14:37:59;-0.70;99.90
57753;DHT22;43583;53.132;6.574;2024-01-10T14:40:33;-0.80;99.90
57753;DHT22;43583;53.132;6.574;2024-01-10T14:43:01;-0.70;99.90
57753;DHT22;43583;53.132;6.574;2024-01-10T14:45:27;-0.80;99.90
57753;DHT22;43583;53.132;6.574;2024-01-10T14:48:02;-0.80;99.90
57753;DHT22;43583;53.132;6.574;2024-01-10T14:50:28;-0.80;99.90
57753;DHT22;43583;53.132;6.574;2024-01-10T14:52:54;-0.80;99.90
57753;DHT22;43583;53.132;6.574;2024-01-10T14:55:19;-0.90;99.90
57753;DHT22;43583;53.132;6.574;2024-01-10T14:57:45;-0.90;99.90
57753;DHT22;43583;53.132;6.574;2024-01-10T15:00:12;-0.90;99.90
57753;DHT22;43583;53.132;6.574;2024-01-10T15:02:38;-1.00;99.90
57753;DHT22;43583;53.132;6.574;2024-01-10T15:05:04;-1.00;99.90
57753;DHT22;43583;53.132;6.574;2024-01-10T15:07:30;-1.10;99.90
57753;DHT22;43583;53.132;6.574;2024-01-10T15:09:56;-1.00;99.90
57753;DHT22;43583;53.132;6.574;2024-01-10T15:12:24;-1.10;99.90
57753;DHT22;43583;53.132;6.574;2024-01-10T15:14:50;-1.10;99.90
57753;DHT22;43583;53.132;6.574;2024-01-10T15:17:15;-1.10;99.90
57753;DHT22;43583;53.132;6.574;2024-01-10T15:19:41;-1.20;99.90
57753;DHT22;43583;53.132;6.574;2024-01-10T15:22:06;-1.30;99.90
57753;DHT22;43583;53.132;6.574;2024-01-10T15:24:33;-1.30;99.90
57753;DHT22;43583;53.132;6.574;2024-01-10T15:26:59;-1.40;99.90
57753;DHT22;43583;53.132;6.574;2024-01-10T15:29:28;-1.40;99.90
57753;DHT22;43583;53.132;6.574;2024-01-10T15:31:54;-1.50;99.90
57753;DHT22;43583;53.132;6.574;2024-01-10T15:34:19;-1.50;99.90
57753;DHT22;43583;53.132;6.574;2024-01-10T15:36:45;-1.50;99.90
57753;DHT22;43583;53.132;6.574;2024-01-10T15:39:12;-1.60;99.90
57753;DHT22;43583;53.132;6.574;2024-01-10T15:41:38;-1.60;99.90
57753;DHT22;43583;53.132;6.574;2024-01-10T15:44:04;-1.60;99.90
57753;DHT22;43583;53.132;6.574;2024-01-10T15:46:31;-1.60;99.90
57753;DHT22;43583;53.132;6.574;2024-01-10T15:48:57;-1.70;99.90
57753;DHT22;43583;53.132;6.574;2024-01-10T15:51:23;-1.70;99.90
57753;DHT22;43583;53.132;6.574;2024-01-10T15:53:49;-1.70;99.90